Vinita Park, Missouri
Current Conditions -  °F | °C
As of 2:51 AM on Monday 22 Dec 2014 (Local Time) from KSTL Reporting Station
Overcast Overcast  
Wind Chill: 37°   Ceiling: 4800
Heat Index: 43°   Visibility: 10mi
Dew Point: 31°   Wind: 12mph
Humidity: 62%   Direction: 120°ESE
Pressure: 29.87"   Gusts: NA
Location:  38.702°N, 90.3628°W
Report Text: KSTL 220851Z 12010KT 10SM OVC048 06/M01 A2987 RMK AO2 SLP118 VCSH S T00611006 58020
Loading
Personal Weather Stations






























Interactive Weather Map New forecast layout! Learn more

10-Day Weather Forecast

Advertisements
Track Severe Weather on mobile